Shannon, Illinois
Current Conditions -  °F | °C
As of 11:15 AM on Friday 31 Oct 2014 (Local Time) from KFEP Reporting Station
Broken Clouds Broken Clouds  
Wind Chill: 25°   Ceiling: 4200
Heat Index: 37°   Visibility: 10mi
Dew Point: 20°   Wind: 24mph
Humidity: 50%   Direction: 360°N
Pressure: 30.31"   Gusts: 33mph
Location:  42.15°N, 89.74°W
Report Text: KFEP 311615Z AUTO 36021G29KT 10SM BKN042 03/M07 A3031 RMK AO2 T00271069
Loading
Personal Weather Stations






























Interactive Weather Map
Tropical Storm Tracking
New forecast layout! Learn more

10-Day Weather Forecast

Advertisements
Track Severe Weather on mobile